createdAt,value
2023-05-05T00:00:23.132Z,99.90
2023-05-05T00:02:50.457Z,99.90
2023-05-05T00:05:17.792Z,99.90
2023-05-05T00:07:45.075Z,99.90
2023-05-05T00:10:12.410Z,99.90
2023-05-05T00:12:39.732Z,99.90
2023-05-05T00:15:07.644Z,99.90
2023-05-05T00:17:34.969Z,99.90
2023-05-05T00:20:02.383Z,99.90
2023-05-05T00:22:29.728Z,99.90
2023-05-05T00:24:57.146Z,99.90
2023-05-05T00:27:24.742Z,99.90
2023-05-05T00:29:52.095Z,99.90
2023-05-05T00:32:19.384Z,99.90
2023-05-05T00:34:47.049Z,99.90
2023-05-05T00:37:14.387Z,99.90
2023-05-05T00:39:41.996Z,99.90
2023-05-05T00:42:09.638Z,99.90
2023-05-05T00:44:41.961Z,99.90
2023-05-05T00:47:10.170Z,99.90
2023-05-05T00:49:38.373Z,99.90
2023-05-05T00:52:07.839Z,99.90
2023-05-05T00:54:36.312Z,99.90
2023-05-05T00:57:04.359Z,99.90
2023-05-05T00:59:33.850Z,99.90
2023-05-05T01:02:01.847Z,99.90
2023-05-05T01:04:29.337Z,99.90
2023-05-05T01:07:09.232Z,99.90
2023-05-05T01:09:42.513Z,99.90
2023-05-05T01:12:15.746Z,99.90
2023-05-05T01:14:56.934Z,99.90
2023-05-05T01:17:34.778Z,99.90
2023-05-05T01:20:29.964Z,99.90
2023-05-05T01:23:06.068Z,99.90
2023-05-05T01:26:08.900Z,99.90
2023-05-05T01:29:06.583Z,99.90
2023-05-05T01:31:53.798Z,99.90
2023-05-05T01:34:29.309Z,99.90
2023-05-05T01:37:20.930Z,99.90
2023-05-05T01:39:54.631Z,99.90
2023-05-05T01:42:25.400Z,99.90
2023-05-05T01:44:56.878Z,99.90
2023-05-05T01:47:25.601Z,99.90
2023-05-05T01:49:53.602Z,99.90
2023-05-05T01:52:22.292Z,99.90
2023-05-05T01:54:52.790Z,99.90
2023-05-05T01:57:23.020Z,99.90
2023-05-05T01:59:53.335Z,99.90
2023-05-05T02:02:22.457Z,99.90
2023-05-05T02:04:51.359Z,99.90
2023-05-05T02:07:20.138Z,99.90
2023-05-05T02:09:48.895Z,99.90
2023-05-05T02:12:18.391Z,99.90
2023-05-05T02:14:47.642Z,99.90
2023-05-05T02:17:16.368Z,99.90
2023-05-05T02:19:45.948Z,99.90
2023-05-05T02:22:15.899Z,99.90
2023-05-05T02:24:44.549Z,99.90
2023-05-05T02:27:13.661Z,99.90
2023-05-05T02:29:54.176Z,99.90
2023-05-05T02:32:29.346Z,99.90
2023-05-05T02:35:00.827Z,99.90
2023-05-05T02:37:30.118Z,99.90
2023-05-05T02:40:05.580Z,99.90
2023-05-05T02:42:43.359Z,99.90
2023-05-05T02:45:18.722Z,99.90
2023-05-05T02:47:49.135Z,99.90
2023-05-05T02:50:17.112Z,99.90
2023-05-05T02:53:05.256Z,99.90
2023-05-05T02:55:39.853Z,99.90
2023-05-05T02:58:14.197Z,99.90
2023-05-05T03:00:47.936Z,99.90
2023-05-05T03:03:39.412Z,99.90
2023-05-05T03:06:19.229Z,99.90
2023-05-05T03:08:52.781Z,99.90
2023-05-05T03:11:37.142Z,99.90
2023-05-05T03:14:12.476Z,99.90
2023-05-05T03:16:43.704Z,99.90
2023-05-05T03:19:13.825Z,99.90
2023-05-05T03:21:42.580Z,99.90
2023-05-05T03:24:17.938Z,99.90
2023-05-05T03:26:51.556Z,99.90
2023-05-05T03:29:22.188Z,99.90
2023-05-05T03:31:49.797Z,99.90
2023-05-05T03:34:17.525Z,99.90
2023-05-05T03:36:47.395Z,99.90
2023-05-05T03:39:16.566Z,99.90
2023-05-05T03:41:43.864Z,99.90
2023-05-05T03:44:12.778Z,99.90
2023-05-05T03:46:40.049Z,99.90
2023-05-05T03:49:11.355Z,99.90
2023-05-05T03:51:40.571Z,99.90
2023-05-05T03:54:08.149Z,99.90
2023-05-05T03:56:36.684Z,99.90
2023-05-05T03:59:04.970Z,99.90
2023-05-05T04:01:32.515Z,99.90
2023-05-05T04:04:00.529Z,99.90
2023-05-05T04:06:28.062Z,99.90
2023-05-05T04:08:55.410Z,99.90
2023-05-05T04:11:22.810Z,99.90
2023-05-05T04:13:50.774Z,99.90
2023-05-05T04:16:20.262Z,99.90
2023-05-05T04:18:47.792Z,99.90
2023-05-05T04:21:15.103Z,99.90
2023-05-05T04:23:42.415Z,99.90
2023-05-05T04:26:10.085Z,99.90
2023-05-05T04:28:37.431Z,99.90
2023-05-05T04:31:05.372Z,99.90
2023-05-05T04:33:36.375Z,99.90
2023-05-05T04:36:04.336Z,99.90
2023-05-05T04:38:31.761Z,99.90
2023-05-05T04:41:00.138Z,99.90
2023-05-05T04:43:28.565Z,99.90
2023-05-05T04:45:56.642Z,99.90
2023-05-05T04:48:27.912Z,99.90
2023-05-05T04:50:55.551Z,99.90
2023-05-05T04:53:23.174Z,99.90
2023-05-05T04:55:50.730Z,99.90
2023-05-05T04:58:18.921Z,99.90
2023-05-05T05:00:46.712Z,99.90
2023-05-05T05:03:14.043Z,99.90
2023-05-05T05:05:41.356Z,99.90
2023-05-05T05:08:08.916Z,99.90
2023-05-05T05:10:36.715Z,99.90
2023-05-05T05:13:04.131Z,99.90
2023-05-05T05:15:31.480Z,99.90
2023-05-05T05:17:58.868Z,99.90
2023-05-05T05:20:26.417Z,99.90
2023-05-05T05:22:53.854Z,99.90
2023-05-05T05:25:25.056Z,99.90
2023-05-05T05:28:06.201Z,99.90
2023-05-05T05:30:40.007Z,99.90
2023-05-05T05:33:09.744Z,99.90
2023-05-05T05:35:37.266Z,99.90
2023-05-05T05:38:04.755Z,99.90
2023-05-05T05:40:32.380Z,99.90
2023-05-05T05:43:00.547Z,99.90
2023-05-05T05:45:28.725Z,99.90
2023-05-05T05:47:56.541Z,99.90
2023-05-05T05:50:27.208Z,99.90
2023-05-05T05:52:55.584Z,99.90
2023-05-05T05:55:24.123Z,99.90
2023-05-05T05:57:52.142Z,99.90
2023-05-05T06:00:20.921Z,99.90
2023-05-05T06:02:55.104Z,99.90
2023-05-05T06:05:25.903Z,99.90
2023-05-05T06:07:54.057Z,99.90
2023-05-05T06:10:27.770Z,99.90
2023-05-05T06:13:05.173Z,99.90
2023-05-05T06:15:34.297Z,99.90
2023-05-05T06:18:03.482Z,99.90
2023-05-05T06:20:31.366Z,99.90
2023-05-05T06:22:58.700Z,99.90
2023-05-05T06:25:27.955Z,99.90
2023-05-05T06:27:55.303Z,99.90
2023-05-05T06:30:22.696Z,99.90
2023-05-05T06:32:50.170Z,99.90
2023-05-05T06:35:17.705Z,99.90
2023-05-05T06:37:44.940Z,99.90
2023-05-05T06:40:13.008Z,99.90
2023-05-05T06:42:40.474Z,99.90
2023-05-05T06:45:10.809Z,99.90
2023-05-05T06:47:38.461Z,99.90
2023-05-05T06:50:07.328Z,99.90
2023-05-05T06:52:34.879Z,99.90
2023-05-05T06:55:02.323Z,99.90
2023-05-05T06:57:30.039Z,99.90
2023-05-05T06:59:57.409Z,99.90
2023-05-05T07:02:26.661Z,99.90
2023-05-05T07:04:55.860Z,99.90
2023-05-05T07:07:23.112Z,99.90
2023-05-05T07:09:53.025Z,99.90
2023-05-05T07:12:20.294Z,99.90
2023-05-05T07:14:47.746Z,99.90
2023-05-05T07:17:15.159Z,99.90
2023-05-05T07:19:43.250Z,99.90
2023-05-05T07:22:10.729Z,99.90
2023-05-05T07:24:38.121Z,99.90
2023-05-05T07:27:06.594Z,99.90
2023-05-05T07:29:33.905Z,99.90
2023-05-05T07:32:02.231Z,99.90
2023-05-05T07:34:30.061Z,99.90
2023-05-05T07:36:57.412Z,99.90
2023-05-05T07:39:24.703Z,99.90
2023-05-05T07:41:52.569Z,99.90
2023-05-05T07:44:20.231Z,99.90
2023-05-05T07:46:50.494Z,99.90
2023-05-05T07:49:17.842Z,99.90
2023-05-05T07:51:45.166Z,99.90
2023-05-05T07:54:12.875Z,99.90
2023-05-05T07:56:40.298Z,99.90
2023-05-05T07:59:07.681Z,99.90
2023-05-05T08:01:34.939Z,99.90
2023-05-05T08:04:02.279Z,99.90
2023-05-05T08:06:31.771Z,99.90
2023-05-05T08:09:02.056Z,99.90
2023-05-05T08:11:29.720Z,99.90
2023-05-05T08:13:57.050Z,99.90
2023-05-05T08:16:25.349Z,99.90
2023-05-05T08:18:52.766Z,99.90
2023-05-05T08:21:20.213Z,99.90
2023-05-05T08:23:47.469Z,99.90
2023-05-05T08:26:14.807Z,99.90
2023-05-05T08:28:42.169Z,99.90
2023-05-05T08:31:09.628Z,99.90
2023-05-05T08:33:36.925Z,99.90
2023-05-05T08:36:05.910Z,99.90
2023-05-05T08:38:33.270Z,99.90
2023-05-05T08:41:00.508Z,99.90
2023-05-05T08:43:27.767Z,99.90
2023-05-05T08:45:56.616Z,99.90
2023-05-05T08:48:28.527Z,99.90
2023-05-05T08:51:02.587Z,99.90
2023-05-05T08:53:40.219Z,99.90
2023-05-05T08:56:08.408Z,99.90
2023-05-05T08:58:37.737Z,99.90
2023-05-05T09:01:06.606Z,99.90
2023-05-05T09:03:35.517Z,99.90
2023-05-05T09:06:02.895Z,99.90
2023-05-05T09:08:31.028Z,99.90
2023-05-05T09:10:58.327Z,99.90
2023-05-05T09:13:25.702Z,99.90
2023-05-05T09:15:53.067Z,99.90
2023-05-05T09:18:20.361Z,99.90
2023-05-05T09:20:47.879Z,99.90
2023-05-05T09:23:17.184Z,99.90
2023-05-05T09:25:47.028Z,99.90
2023-05-05T09:28:16.590Z,99.90
2023-05-05T09:30:46.043Z,99.90
2023-05-05T09:33:14.096Z,99.90
2023-05-05T09:35:55.311Z,99.90
2023-05-05T09:38:24.920Z,99.90
2023-05-05T09:40:53.741Z,99.90
2023-05-05T09:43:23.412Z,99.90
2023-05-05T09:45:51.384Z,99.90
2023-05-05T09:48:29.755Z,99.90
2023-05-05T09:50:59.200Z,99.90
2023-05-05T09:53:27.243Z,99.90
2023-05-05T09:55:59.730Z,99.90
2023-05-05T09:58:31.639Z,99.90
2023-05-05T10:00:59.678Z,99.90
2023-05-05T10:03:26.963Z,99.90
2023-05-05T10:05:59.174Z,99.90
2023-05-05T10:08:32.405Z,99.90
2023-05-05T10:11:06.606Z,99.90
2023-05-05T10:13:37.686Z,99.90
2023-05-05T10:16:09.302Z,99.90
2023-05-05T10:18:40.415Z,99.90
2023-05-05T10:21:09.438Z,99.90
2023-05-05T10:23:41.933Z,99.90
2023-05-05T10:26:13.742Z,99.90
2023-05-05T10:29:01.611Z,99.80
2023-05-05T10:31:49.287Z,98.50
2023-05-05T10:34:25.093Z,97.30
2023-05-05T10:36:53.835Z,97.80
2023-05-05T10:39:22.947Z,97.10
2023-05-05T10:41:52.288Z,96.80
2023-05-05T10:44:20.074Z,96.50
2023-05-05T10:46:47.945Z,96.20
2023-05-05T10:49:24.989Z,96.30
2023-05-05T10:52:26.355Z,95.80
2023-05-05T10:55:03.878Z,95.90
2023-05-05T10:57:36.228Z,95.00
2023-05-05T11:00:06.142Z,94.80
2023-05-05T11:02:36.207Z,94.60
2023-05-05T11:05:18.607Z,93.70
2023-05-05T11:07:47.402Z,93.50
2023-05-05T11:10:16.810Z,93.70
2023-05-05T11:13:10.646Z,93.20
2023-05-05T11:15:38.302Z,93.30
2023-05-05T11:18:08.273Z,94.10
2023-05-05T11:20:43.712Z,94.70
2023-05-05T11:23:11.066Z,94.90
2023-05-05T11:25:40.821Z,94.60
2023-05-05T11:28:12.811Z,94.10
2023-05-05T11:30:56.054Z,93.90
2023-05-05T11:33:39.586Z,92.50
2023-05-05T11:36:12.158Z,92.20
2023-05-05T11:38:39.449Z,90.80
2023-05-05T11:41:36.151Z,90.70
2023-05-05T11:44:15.206Z,91.30
2023-05-05T11:46:51.737Z,90.80
2023-05-05T11:49:45.703Z,90.90
2023-05-05T11:52:14.740Z,91.40
2023-05-05T11:54:51.488Z,92.80
2023-05-05T11:57:21.910Z,93.60
2023-05-05T12:00:00.392Z,94.90
2023-05-05T12:02:29.758Z,96.30
2023-05-05T12:04:58.791Z,97.60
2023-05-05T12:07:31.551Z,98.10
2023-05-05T12:09:59.444Z,98.80
2023-05-05T12:12:41.185Z,99.80
2023-05-05T12:15:09.570Z,99.90
2023-05-05T12:17:45.391Z,99.90
2023-05-05T12:20:13.149Z,99.90
2023-05-05T12:22:41.162Z,99.90
2023-05-05T12:25:09.378Z,99.90
2023-05-05T12:27:37.157Z,99.90
2023-05-05T12:30:16.772Z,99.90
2023-05-05T12:32:45.130Z,99.90
2023-05-05T12:35:13.750Z,99.90
2023-05-05T12:37:42.426Z,99.90
2023-05-05T12:40:45.985Z,99.90
2023-05-05T12:43:27.254Z,99.90
2023-05-05T12:46:07.853Z,99.90
2023-05-05T12:48:40.344Z,99.90
2023-05-05T12:51:17.566Z,99.90
2023-05-05T12:53:46.330Z,99.90
2023-05-05T12:56:38.524Z,99.90
2023-05-05T12:59:24.275Z,99.90
2023-05-05T13:01:53.166Z,99.90
2023-05-05T13:04:23.174Z,99.90
2023-05-05T13:07:08.201Z,99.90
2023-05-05T13:09:36.581Z,99.90
2023-05-05T13:12:04.773Z,99.90
2023-05-05T13:14:32.706Z,99.90
2023-05-05T13:17:00.671Z,99.90
2023-05-05T13:19:27.945Z,99.90
2023-05-05T13:21:56.664Z,99.90
2023-05-05T13:24:38.136Z,99.90
2023-05-05T13:27:12.734Z,99.90
2023-05-05T13:29:41.747Z,99.90
2023-05-05T13:32:09.151Z,99.90
2023-05-05T13:34:37.384Z,99.90
2023-05-05T13:37:04.628Z,99.90
2023-05-05T13:39:32.242Z,99.90
2023-05-05T13:41:59.953Z,99.90
2023-05-05T13:44:27.404Z,99.90
2023-05-05T13:46:54.894Z,99.90
2023-05-05T13:49:22.303Z,99.90
2023-05-05T13:51:49.708Z,99.90
2023-05-05T13:54:17.087Z,99.90
2023-05-05T13:56:44.720Z,99.90
2023-05-05T13:59:12.549Z,99.90
2023-05-05T14:01:39.772Z,99.90
2023-05-05T14:04:07.374Z,99.90
2023-05-05T14:06:35.879Z,99.90
2023-05-05T14:09:06.086Z,99.90
2023-05-05T14:11:33.983Z,99.90
2023-05-05T14:14:02.135Z,99.90
2023-05-05T14:16:29.599Z,99.90
2023-05-05T14:18:57.077Z,99.90
2023-05-05T14:21:24.749Z,99.90
2023-05-05T14:23:52.746Z,99.90
2023-05-05T14:26:20.021Z,99.90
2023-05-05T14:28:49.779Z,99.90
2023-05-05T14:31:18.052Z,99.90
2023-05-05T14:33:45.785Z,99.90
2023-05-05T14:36:14.416Z,99.90
2023-05-05T14:38:43.026Z,99.90
2023-05-05T14:41:10.946Z,99.90
2023-05-05T14:43:38.694Z,99.90
2023-05-05T14:46:07.462Z,99.90
2023-05-05T14:48:36.183Z,99.90
2023-05-05T14:51:04.514Z,99.90
2023-05-05T14:53:32.215Z,99.90
2023-05-05T14:56:00.504Z,99.90
2023-05-05T14:58:28.045Z,99.90
2023-05-05T15:00:55.578Z,99.90
2023-05-05T15:03:23.055Z,99.90
2023-05-05T15:05:50.584Z,99.90
2023-05-05T15:08:19.380Z,99.90
2023-05-05T15:10:47.317Z,99.90
2023-05-05T15:13:15.161Z,99.90
2023-05-05T15:15:42.923Z,99.90
2023-05-05T15:18:10.265Z,99.90
2023-05-05T15:20:37.974Z,99.90
2023-05-05T15:23:05.377Z,99.90
2023-05-05T15:25:32.926Z,99.90
2023-05-05T15:28:01.506Z,99.90
2023-05-05T15:30:29.367Z,99.90
2023-05-05T15:32:56.798Z,99.90
2023-05-05T15:35:25.869Z,99.90
2023-05-05T15:37:56.217Z,99.90
2023-05-05T15:40:23.597Z,99.90
2023-05-05T15:42:51.969Z,99.90
2023-05-05T15:45:19.284Z,99.90
2023-05-05T15:47:46.646Z,99.90
2023-05-05T15:50:14.556Z,99.90
2023-05-05T15:52:42.056Z,99.90
2023-05-05T15:55:10.551Z,99.90
2023-05-05T15:57:40.532Z,99.90
2023-05-05T16:00:09.564Z,99.90
2023-05-05T16:02:38.920Z,99.90
2023-05-05T16:05:06.927Z,99.90
2023-05-05T16:07:34.550Z,99.90
2023-05-05T16:10:02.930Z,99.90
2023-05-05T16:12:30.572Z,99.90
2023-05-05T16:14:57.873Z,99.90
2023-05-05T16:17:25.292Z,99.90
2023-05-05T16:19:52.840Z,99.90
2023-05-05T16:22:21.512Z,99.90
2023-05-05T16:24:49.810Z,99.90
2023-05-05T16:27:17.874Z,99.90
2023-05-05T16:29:45.252Z,99.90
2023-05-05T16:32:12.927Z,99.90
2023-05-05T16:34:40.422Z,99.90
2023-05-05T16:37:07.813Z,99.90
2023-05-05T16:39:40.353Z,99.90
2023-05-05T16:42:07.853Z,99.90
2023-05-05T16:44:35.137Z,99.90
2023-05-05T16:47:02.530Z,99.90
2023-05-05T16:49:29.798Z,99.90
2023-05-05T16:51:57.366Z,99.90
2023-05-05T16:54:24.633Z,99.90
2023-05-05T16:56:52.537Z,99.90
2023-05-05T16:59:19.912Z,99.90
2023-05-05T17:01:47.344Z,99.90
2023-05-05T17:04:18.767Z,99.90
2023-05-05T17:06:46.378Z,99.90
2023-05-05T17:09:13.766Z,99.90
2023-05-05T17:11:41.190Z,99.90
2023-05-05T17:14:08.526Z,99.90
2023-05-05T17:16:37.095Z,99.90
2023-05-05T17:19:05.415Z,99.90
2023-05-05T17:21:32.928Z,99.90
2023-05-05T17:24:02.087Z,99.90
2023-05-05T17:26:30.852Z,99.90
2023-05-05T17:28:58.322Z,99.90
2023-05-05T17:31:25.961Z,99.90
2023-05-05T17:33:53.246Z,99.90
2023-05-05T17:36:20.618Z,99.90
2023-05-05T17:38:48.002Z,99.90
2023-05-05T17:41:15.276Z,99.90
2023-05-05T17:43:42.757Z,99.90
2023-05-05T17:46:10.053Z,99.90
2023-05-05T17:48:37.733Z,99.90
2023-05-05T17:51:05.392Z,99.90
2023-05-05T17:53:32.762Z,99.90
2023-05-05T17:56:00.131Z,99.90
2023-05-05T17:58:28.224Z,99.90
2023-05-05T18:00:55.847Z,99.90
2023-05-05T18:03:23.273Z,99.90
2023-05-05T18:05:50.542Z,99.90
2023-05-05T18:08:18.659Z,99.90
2023-05-05T18:10:46.086Z,99.90
2023-05-05T18:13:13.420Z,99.90
2023-05-05T18:15:41.329Z,99.90
2023-05-05T18:18:09.065Z,99.90
2023-05-05T18:20:37.128Z,99.90
2023-05-05T18:23:04.381Z,99.90
2023-05-05T18:25:32.531Z,99.90
2023-05-05T18:27:59.787Z,99.90
2023-05-05T18:30:27.408Z,99.90
2023-05-05T18:32:55.015Z,99.90
2023-05-05T18:35:22.686Z,99.90
2023-05-05T18:37:50.165Z,99.90
2023-05-05T18:40:17.858Z,99.90
2023-05-05T18:42:45.347Z,99.90
2023-05-05T18:45:12.769Z,99.90
2023-05-05T18:47:40.299Z,99.90
2023-05-05T18:50:08.902Z,99.90
2023-05-05T18:52:37.195Z,99.90
2023-05-05T18:55:04.884Z,99.90
2023-05-05T18:57:32.390Z,99.90
2023-05-05T19:00:00.633Z,99.90
2023-05-05T19:02:28.927Z,99.90
2023-05-05T19:04:56.378Z,99.90
2023-05-05T19:07:34.361Z,99.90
2023-05-05T19:10:05.271Z,99.90
2023-05-05T19:12:32.609Z,99.90
2023-05-05T19:15:00.000Z,99.90
2023-05-05T19:17:27.998Z,99.90
2023-05-05T19:19:55.801Z,99.90
2023-05-05T19:22:23.974Z,99.90
2023-05-05T19:24:51.654Z,99.90
2023-05-05T19:27:21.698Z,99.90
2023-05-05T19:29:52.482Z,99.90
2023-05-05T19:32:21.519Z,99.90
2023-05-05T19:34:50.101Z,99.90
2023-05-05T19:37:17.493Z,99.90
2023-05-05T19:39:45.902Z,99.90
2023-05-05T19:42:13.359Z,99.90
2023-05-05T19:44:41.756Z,99.90
2023-05-05T19:47:11.004Z,99.90
2023-05-05T19:49:38.827Z,99.90
2023-05-05T19:52:06.246Z,99.90
2023-05-05T19:54:33.655Z,99.90
2023-05-05T19:57:01.519Z,99.90
2023-05-05T19:59:29.039Z,99.90
2023-05-05T20:01:56.815Z,99.90
2023-05-05T20:04:24.422Z,99.90
2023-05-05T20:06:51.965Z,99.90
2023-05-05T20:09:19.977Z,99.90
2023-05-05T20:11:47.352Z,99.90
2023-05-05T20:14:14.747Z,99.90
2023-05-05T20:16:42.645Z,99.90
2023-05-05T20:19:10.108Z,99.90
2023-05-05T20:21:37.782Z,99.90
2023-05-05T20:24:06.212Z,99.90
2023-05-05T20:26:33.694Z,99.90
2023-05-05T20:29:01.285Z,99.90
2023-05-05T20:31:28.804Z,99.90
2023-05-05T20:33:56.378Z,99.90
2023-05-05T20:36:26.539Z,99.90
2023-05-05T20:38:54.162Z,99.90
2023-05-05T20:41:22.568Z,99.90
2023-05-05T20:43:50.006Z,99.90
2023-05-05T20:46:17.360Z,99.90
2023-05-05T20:48:46.300Z,99.90
2023-05-05T20:51:13.624Z,99.90
2023-05-05T20:53:41.111Z,99.90
2023-05-05T20:56:09.214Z,99.90
2023-05-05T20:58:36.730Z,99.90
2023-05-05T21:01:03.995Z,99.90
2023-05-05T21:03:31.231Z,99.90
2023-05-05T21:05:58.644Z,99.90
2023-05-05T21:08:26.022Z,99.90
2023-05-05T21:10:53.278Z,99.90
2023-05-05T21:13:20.824Z,99.90
2023-05-05T21:15:50.547Z,99.90
2023-05-05T21:18:17.901Z,99.90
2023-05-05T21:20:45.681Z,99.90
2023-05-05T21:23:13.679Z,99.90
2023-05-05T21:25:42.809Z,99.90
2023-05-05T21:28:11.428Z,99.90
2023-05-05T21:30:40.656Z,99.90
2023-05-05T21:33:08.866Z,99.90
2023-05-05T21:35:36.545Z,99.90
2023-05-05T21:38:03.994Z,99.90
2023-05-05T21:40:31.260Z,99.90
2023-05-05T21:42:58.521Z,99.90
2023-05-05T21:45:25.868Z,99.90
2023-05-05T21:47:53.194Z,99.90
2023-05-05T21:50:20.686Z,99.90
2023-05-05T21:52:48.082Z,99.90
2023-05-05T21:55:15.717Z,99.90
2023-05-05T21:57:43.602Z,99.90
2023-05-05T22:00:16.958Z,99.90
2023-05-05T22:02:45.603Z,99.90
2023-05-05T22:05:13.441Z,99.90
2023-05-05T22:07:59.543Z,99.90
2023-05-05T22:10:27.734Z,99.90
2023-05-05T22:12:55.061Z,99.90
2023-05-05T22:15:25.406Z,99.90
2023-05-05T22:17:54.832Z,99.90
2023-05-05T22:20:22.249Z,99.90
2023-05-05T22:22:49.844Z,99.90
2023-05-05T22:25:17.200Z,99.90
2023-05-05T22:27:44.490Z,99.90
2023-05-05T22:30:12.553Z,99.90
2023-05-05T22:32:40.355Z,99.90
2023-05-05T22:35:09.373Z,99.90
2023-05-05T22:37:37.738Z,99.90
2023-05-05T22:40:05.523Z,99.90
2023-05-05T22:42:32.804Z,99.90
2023-05-05T22:45:00.073Z,99.90
2023-05-05T22:47:27.406Z,99.90
2023-05-05T22:49:54.713Z,99.90
2023-05-05T22:52:22.105Z,99.90
2023-05-05T22:54:49.345Z,99.90
2023-05-05T22:57:16.632Z,99.90
2023-05-05T22:59:44.232Z,99.90
2023-05-05T23:02:11.522Z,99.90
2023-05-05T23:04:39.360Z,99.90
2023-05-05T23:07:06.749Z,99.90
2023-05-05T23:09:34.081Z,99.90
2023-05-05T23:12:01.943Z,99.90
2023-05-05T23:14:29.306Z,99.90
2023-05-05T23:16:56.568Z,99.90
2023-05-05T23:19:24.393Z,99.90
2023-05-05T23:21:53.674Z,99.90
2023-05-05T23:24:22.165Z,99.90
2023-05-05T23:26:49.743Z,99.90
2023-05-05T23:29:16.965Z,99.90
2023-05-05T23:31:44.992Z,99.90
2023-05-05T23:34:13.256Z,99.90
2023-05-05T23:36:40.684Z,99.90
2023-05-05T23:39:07.953Z,99.90
2023-05-05T23:41:35.267Z,99.90
2023-05-05T23:44:02.685Z,99.90
2023-05-05T23:46:30.284Z,99.90
2023-05-05T23:48:57.722Z,99.90
2023-05-05T23:51:24.983Z,99.90
2023-05-05T23:53:52.352Z,99.90
2023-05-05T23:56:20.210Z,99.90
2023-05-05T23:58:47.816Z,99.90
